PKMJPTPN

Guest
Details From PKMJ - MARSHALL ISLANDS INTL
To PTPN - POHNPEI INTL
Flight Number -
Tags generated
Created
Modified
Stats Distance 812 nm / 1,504 km
Max Altitude 34,000 ft / 10,363 m
Waypoints 6
Social Downloads 0
Likes 0
Share VATSIM

Download

Looking for another format? Having issues loading an existing format? Contact us
Advertisement - Login to hide

Notes

Basic altitude profile: - Ascent Rate: 2500ft/min - Ascent Speed: 250kts - Cruise Altitude: 35000ft - Cruise Speed: 420kts - Descent Rate: 1500ft/min - Descent Speed: 250kts Options: - Use NATs: yes - Use PACOTS: yes - Use low airways: yes - Use high airways: yes

Route

PKMJ OREEO R584 PNI PTPN

ID Type Via Altitude Latitude Longitude Leg Dist Tot Dist Heading (true) Name
O PKMJ APT - 0 ft / 0 m 7.06476˚ 171.27202˚ - 0 nm - MARSHALL ISLANDS INTL
OREEO FIX - 18,900 ft / 5,761 m 7.44806˚ 170.46917˚ 53 nm 53 nm 296° / 296° -
NDJNB FIX R584 (AWY-LO) 34,000 ft / 10,363 m 8.72088˚ 167.72776˚ 180 nm 233 nm 295° / 295° -
LOOIS FIX R584 (AWY-HI) 34,000 ft / 10,363 m 8.20167˚ 164.74833˚ 179 nm 412 nm 260° / 260° -
PNI NDB R584 (AWY-LO) 18,000 ft / 5,486 m 6.97197˚ 158.18497˚ 397 nm 810 nm 260° / 259° POHNPEI NDB
O PTPN APT - 0 ft / 0 m 6.98523˚ 158.20910˚ 1 nm 812 nm 61° / 61° POHNPEI INTL

Altitude Profile

Advertisement - Login to hide

Weather


0- 5 10 15 20 25 30 35+ Temperature / ° C

Clouds and Precipitation
Forecast for 2017-12-16 00:00 UTC. Updated 8 minutes ago

Ground ~20,000 ft ~40,000 ft Winds

PKMJ

Details ICAO PKMJ (MAJ)
Name MARSHALL ISLANDS INTL
Region Marshall Islands
Timezone Pacific/Majuro (UTC+12.0)
Stats Elevation 6 ft / 2 m (AMSL)
Location 7.064760° 171.272023°
Runways 1
Magnetic Variation 8.428° E

METAR

PKMJ 152252Z 06011KT 15SM FEW015 SCT050 BKN120 OVC300 29/25 A2984

Decode

TAF

TAF PKMJ 151720Z 1518/1618 09012KT P6SM VCSH FEW016 SCT050 BKN120

Decode

Departure Runways

ID Width Length Bearing (true) Bearing (mag) Surface Threshold Offset Overrun Length
07 150 ft / 46 m 7,898 ft / 2,407 m 76.08° 67.65° Asphalt 0 ft / 0 m 200 ft / 61 m
25 150 ft / 46 m 7,898 ft / 2,407 m 256.08° 247.65° Asphalt 0 ft / 0 m 200 ft / 61 m

PTPN

Details ICAO PTPN (PNI)
Name POHNPEI INTL
Region Federated States of Micronesia, Palau
Timezone Pacific/Pohnpei (UTC+11.0)
Stats Elevation 10 ft / 3 m (AMSL)
Location 6.985226° 158.209103°
Runways 1
Magnetic Variation 5.761° E

METAR

PTPN 152252Z 06008KT 15SM BKN018 BKN130 OVC300 28/25 A2984

Decode

TAF

Not found

Destination Runways

ID Width Length Bearing (true) Bearing (mag) Surface Threshold Offset Overrun Length
09 151 ft / 46 m 6,023 ft / 1,836 m 90.31° 84.55° Asphalt 0 ft / 0 m 69 ft / 21 m
27 151 ft / 46 m 6,023 ft / 1,836 m 270.32° 264.56° Asphalt 0 ft / 0 m 69 ft / 21 m

Popular Alternatives